createdAt,value
2022-11-03T00:02:45.377Z,72.36
2022-11-03T00:06:55.070Z,72.61
2022-11-03T00:11:08.231Z,72.66
2022-11-03T00:15:15.903Z,73.05
2022-11-03T00:19:23.978Z,73.00
2022-11-03T00:23:34.172Z,73.18
2022-11-03T00:27:41.605Z,73.40
2022-11-03T00:31:49.246Z,73.61
2022-11-03T00:36:01.570Z,73.78
2022-11-03T00:40:12.479Z,73.83
2022-11-03T00:44:20.123Z,74.04
2022-11-03T00:48:31.474Z,74.02
2022-11-03T00:52:40.388Z,73.91
2022-11-03T00:56:48.548Z,74.16
2022-11-03T01:01:01.646Z,74.09
2022-11-03T01:05:28.995Z,74.36
2022-11-03T01:09:39.864Z,74.31
2022-11-03T01:13:47.593Z,74.27
2022-11-03T01:17:55.100Z,74.35
2022-11-03T01:22:06.445Z,74.65
2022-11-03T01:26:22.737Z,74.67
2022-11-03T01:30:30.012Z,74.70
2022-11-03T01:34:37.483Z,74.79
2022-11-03T01:38:46.082Z,74.87
2022-11-03T01:42:53.882Z,74.70
2022-11-03T01:47:07.437Z,74.61
2022-11-03T01:51:18.759Z,74.38
2022-11-03T01:55:28.336Z,74.50
2022-11-03T01:59:36.486Z,74.60
2022-11-03T02:03:49.299Z,74.63
2022-11-03T02:08:02.071Z,74.57
2022-11-03T02:12:14.749Z,74.62
2022-11-03T02:16:25.101Z,74.57
2022-11-03T02:20:34.496Z,74.52
2022-11-03T02:24:53.969Z,74.66
2022-11-03T02:29:03.007Z,74.79
2022-11-03T02:33:17.865Z,74.75
2022-11-03T02:37:28.799Z,74.79
2022-11-03T02:41:40.572Z,74.72
2022-11-03T02:45:50.260Z,74.63
2022-11-03T02:49:58.177Z,74.71
2022-11-03T02:54:10.534Z,74.81
2022-11-03T02:58:23.452Z,74.98
2022-11-03T03:02:34.698Z,74.87
2022-11-03T03:06:47.922Z,75.10
2022-11-03T03:10:58.780Z,74.88
2022-11-03T03:15:08.518Z,74.88
2022-11-03T03:19:23.363Z,75.09
2022-11-03T03:23:35.702Z,75.04
2022-11-03T03:27:48.745Z,75.07
2022-11-03T03:31:59.447Z,75.33
2022-11-03T03:36:10.052Z,75.27
2022-11-03T03:40:21.737Z,75.30
2022-11-03T03:44:29.997Z,75.46
2022-11-03T03:48:37.569Z,75.31
2022-11-03T03:52:45.664Z,75.61
2022-11-03T03:56:58.456Z,75.75
2022-11-03T04:01:07.106Z,76.02
2022-11-03T04:05:14.754Z,76.15
2022-11-03T04:09:22.675Z,76.13
2022-11-03T04:13:49.180Z,76.03
2022-11-03T04:18:13.979Z,76.46
2022-11-03T04:22:23.073Z,75.94
2022-11-03T04:26:31.186Z,76.20
2022-11-03T04:30:39.092Z,76.26
2022-11-03T04:34:48.421Z,76.54
2022-11-03T04:38:56.110Z,76.37
2022-11-03T04:43:04.384Z,76.75
2022-11-03T04:47:15.075Z,76.98
2022-11-03T04:51:26.017Z,76.88
2022-11-03T04:55:34.553Z,77.19
2022-11-03T04:59:42.788Z,77.36
2022-11-03T05:03:53.913Z,77.01
2022-11-03T05:08:01.984Z,77.06
2022-11-03T05:12:11.606Z,76.75
2022-11-03T05:16:19.392Z,76.85
2022-11-03T05:20:36.388Z,76.69
2022-11-03T05:24:44.539Z,76.74
2022-11-03T05:28:54.222Z,76.79
2022-11-03T05:33:02.452Z,76.77
2022-11-03T05:37:27.296Z,76.89
2022-11-03T05:41:38.972Z,77.01
2022-11-03T05:45:59.041Z,76.90
2022-11-03T05:50:22.542Z,77.27
2022-11-03T05:54:35.877Z,77.03
2022-11-03T05:58:53.483Z,76.89
2022-11-03T06:03:08.194Z,77.27
2022-11-03T06:07:22.561Z,76.99
2022-11-03T06:11:37.376Z,77.21
2022-11-03T06:15:46.804Z,77.74
2022-11-03T06:20:03.565Z,77.85
2022-11-03T06:24:13.015Z,77.89
2022-11-03T06:28:31.793Z,77.82
2022-11-03T06:32:40.102Z,78.15
2022-11-03T06:36:51.976Z,78.33
2022-11-03T06:41:01.421Z,78.28
2022-11-03T06:45:18.888Z,78.40
2022-11-03T06:49:31.564Z,79.07
2022-11-03T06:53:43.798Z,79.83
2022-11-03T06:57:57.216Z,80.94
2022-11-03T07:02:14.186Z,81.60
2022-11-03T07:06:27.658Z,81.54
2022-11-03T07:10:40.522Z,81.78
2022-11-03T07:14:47.965Z,81.34
2022-11-03T07:18:57.690Z,81.15
2022-11-03T07:23:05.724Z,80.92
2022-11-03T07:27:20.659Z,80.83
2022-11-03T07:31:31.299Z,80.95
2022-11-03T07:36:13.902Z,80.87
2022-11-03T07:40:20.432Z,80.76
2022-11-03T07:44:30.940Z,80.97
2022-11-03T07:48:48.437Z,80.70
2022-11-03T07:52:55.696Z,80.77
2022-11-03T07:57:05.957Z,80.34
2022-11-03T08:01:32.034Z,80.31
2022-11-03T08:05:43.750Z,80.12
2022-11-03T08:09:51.539Z,79.79
2022-11-03T08:14:03.629Z,79.10
2022-11-03T08:18:11.137Z,79.18
2022-11-03T08:22:18.958Z,78.49
2022-11-03T08:26:26.806Z,78.52
2022-11-03T08:30:35.608Z,78.43
2022-11-03T08:34:43.422Z,77.91
2022-11-03T08:38:51.075Z,77.72
2022-11-03T08:42:58.508Z,76.83
2022-11-03T08:47:05.981Z,76.41
2022-11-03T08:51:14.281Z,76.35
2022-11-03T08:55:22.568Z,76.23
2022-11-03T08:59:29.920Z,75.82
2022-11-03T09:03:38.305Z,75.70
2022-11-03T09:12:14.831Z,74.78
2022-11-03T09:16:22.641Z,74.55
2022-11-03T09:20:31.929Z,74.34
2022-11-03T09:24:40.064Z,73.92
2022-11-03T09:28:49.401Z,73.35
2022-11-03T09:32:57.274Z,72.79
2022-11-03T09:37:05.267Z,72.59
2022-11-03T09:41:26.651Z,72.75
2022-11-03T09:45:43.019Z,72.03
2022-11-03T09:49:50.658Z,72.60
2022-11-03T09:53:59.860Z,72.44
2022-11-03T09:58:14.639Z,72.30
2022-11-03T10:02:28.809Z,72.04
2022-11-03T10:06:36.664Z,71.51
2022-11-03T10:10:45.100Z,71.37
2022-11-03T10:14:53.661Z,70.97
2022-11-03T10:19:01.615Z,70.43
2022-11-03T10:23:09.759Z,69.40
2022-11-03T10:27:27.481Z,69.10
2022-11-03T10:31:40.023Z,69.38
2022-11-03T10:35:48.227Z,68.79
2022-11-03T10:39:58.492Z,68.70
2022-11-03T10:44:14.726Z,68.51
2022-11-03T10:48:22.490Z,68.64
2022-11-03T10:52:31.685Z,68.02
2022-11-03T10:56:40.954Z,67.91
2022-11-03T11:00:50.371Z,66.96
2022-11-03T11:05:01.559Z,66.96
2022-11-03T11:09:11.097Z,67.16
2022-11-03T11:13:31.645Z,67.31
2022-11-03T11:17:50.934Z,68.07
2022-11-03T11:22:07.480Z,67.48
2022-11-03T11:26:37.464Z,67.09
2022-11-03T11:31:24.177Z,66.94
2022-11-03T11:36:20.718Z,66.29
2022-11-03T11:40:52.515Z,65.49
2022-11-03T11:45:04.631Z,65.07
2022-11-03T11:49:21.055Z,64.32
2022-11-03T11:53:31.957Z,64.36
2022-11-03T11:57:39.691Z,64.07
2022-11-03T12:01:49.808Z,63.79
2022-11-03T12:05:57.511Z,63.31
2022-11-03T12:10:11.769Z,63.06
2022-11-03T12:14:27.858Z,62.45
2022-11-03T12:18:41.604Z,63.56
2022-11-03T12:22:51.201Z,63.08
2022-11-03T12:26:59.259Z,62.64
2022-11-03T12:31:07.568Z,62.11
2022-11-03T12:35:16.062Z,62.11
2022-11-03T12:39:23.631Z,61.42
2022-11-03T12:43:31.104Z,61.87
2022-11-03T12:47:38.812Z,61.76
2022-11-03T12:51:46.607Z,61.40
2022-11-03T12:55:54.477Z,61.25
2022-11-03T13:00:02.373Z,61.34
2022-11-03T13:04:10.776Z,60.88
2022-11-03T13:12:33.978Z,60.26
2022-11-03T13:16:41.534Z,59.82
2022-11-03T13:20:49.372Z,59.61
2022-11-03T13:24:57.328Z,59.62
2022-11-03T13:29:05.355Z,60.03
2022-11-03T13:33:12.994Z,60.61
2022-11-03T13:37:20.569Z,61.15
2022-11-03T13:41:29.106Z,61.94
2022-11-03T13:45:36.403Z,62.66
2022-11-03T13:50:12.388Z,62.97
2022-11-03T14:07:36.679Z,63.35
2022-11-03T14:12:01.712Z,63.83
2022-11-03T14:16:09.948Z,64.28
2022-11-03T14:20:17.685Z,64.79
2022-11-03T14:24:25.859Z,64.78
2022-11-03T14:28:33.379Z,65.03
2022-11-03T14:32:41.404Z,65.17
2022-11-03T14:36:49.595Z,65.27
2022-11-03T14:41:14.788Z,65.42
2022-11-03T14:45:23.015Z,65.82
2022-11-03T14:49:30.812Z,66.13
2022-11-03T14:53:39.432Z,66.32
2022-11-03T14:57:46.752Z,66.55
2022-11-03T15:01:57.856Z,66.85
2022-11-03T15:06:06.397Z,67.13
2022-11-03T15:10:14.608Z,67.36
2022-11-03T15:14:22.590Z,67.57
2022-11-03T15:18:37.337Z,67.74
2022-11-03T15:27:12.795Z,68.19
2022-11-03T15:31:20.113Z,68.34
2022-11-03T15:35:28.214Z,68.53
2022-11-03T15:39:36.355Z,68.58
2022-11-03T15:43:45.617Z,68.56
2022-11-03T15:47:58.159Z,68.62
2022-11-03T15:52:06.784Z,68.77
2022-11-03T15:56:13.975Z,68.85
2022-11-03T16:00:22.441Z,68.87
2022-11-03T16:04:31.825Z,69.10
2022-11-03T16:08:39.255Z,69.25
2022-11-03T16:12:47.220Z,69.45
2022-11-03T16:16:54.668Z,69.50
2022-11-03T16:21:02.213Z,69.58
2022-11-03T16:25:13.418Z,69.83
2022-11-03T16:29:24.031Z,69.89
2022-11-03T16:33:31.927Z,70.04
2022-11-03T16:37:39.754Z,70.15
2022-11-03T16:41:47.847Z,70.40
2022-11-03T16:45:55.119Z,70.46
2022-11-03T16:50:03.030Z,70.72
2022-11-03T16:54:11.084Z,71.08
2022-11-03T16:58:19.202Z,71.20
2022-11-03T17:02:28.269Z,71.58
2022-11-03T17:06:36.078Z,71.78
2022-11-03T17:10:44.805Z,71.90
2022-11-03T17:14:55.636Z,71.99
2022-11-03T17:19:04.340Z,72.17
2022-11-03T17:23:13.003Z,71.92
2022-11-03T17:27:22.508Z,71.96
2022-11-03T17:31:31.487Z,72.25
2022-11-03T17:35:41.651Z,72.25
2022-11-03T17:39:49.821Z,72.53
2022-11-03T17:43:57.985Z,72.53
2022-11-03T17:48:06.552Z,72.65
2022-11-03T17:52:19.115Z,72.92
2022-11-03T17:56:31.142Z,73.25
2022-11-03T18:00:39.042Z,74.01
2022-11-03T18:04:47.383Z,73.92
2022-11-03T18:08:54.982Z,74.19
2022-11-03T18:13:19.496Z,74.39
2022-11-03T18:17:27.557Z,74.42
2022-11-03T18:21:35.325Z,74.55
2022-11-03T18:25:47.830Z,74.56
2022-11-03T18:29:56.321Z,74.68
2022-11-03T18:34:05.605Z,74.47
2022-11-03T18:38:20.127Z,74.46
2022-11-03T18:42:27.847Z,74.81
2022-11-03T18:46:36.249Z,74.53
2022-11-03T18:50:44.686Z,74.22
2022-11-03T18:54:54.521Z,74.12
2022-11-03T18:59:02.814Z,74.37
2022-11-03T19:03:15.628Z,74.43
2022-11-03T19:07:26.899Z,74.61
2022-11-03T19:11:34.341Z,74.61
2022-11-03T19:15:42.188Z,74.26
2022-11-03T19:19:50.407Z,74.27
2022-11-03T19:23:58.639Z,74.31
2022-11-03T19:28:07.441Z,73.91
2022-11-03T19:32:21.515Z,73.95
2022-11-03T19:36:31.819Z,73.97
2022-11-03T19:40:39.596Z,73.55
2022-11-03T19:44:47.468Z,73.23
2022-11-03T19:48:55.733Z,73.59
2022-11-03T19:53:06.859Z,73.69
2022-11-03T19:57:17.083Z,73.37
2022-11-03T20:01:24.451Z,73.18
2022-11-03T20:05:32.839Z,73.46
2022-11-03T20:09:41.952Z,73.25
2022-11-03T20:13:49.634Z,73.49
2022-11-03T20:17:58.314Z,74.04
2022-11-03T20:22:07.169Z,74.15
2022-11-03T20:26:17.863Z,74.15
2022-11-03T20:30:27.138Z,74.42
2022-11-03T20:34:34.939Z,74.56
2022-11-03T20:38:42.632Z,74.93
2022-11-03T20:42:52.800Z,74.91
2022-11-03T20:47:01.212Z,74.79
2022-11-03T20:51:08.680Z,74.66
2022-11-03T20:55:21.547Z,74.85
2022-11-03T20:59:33.251Z,75.17
2022-11-03T21:04:00.256Z,75.11
2022-11-03T21:08:10.176Z,75.14
2022-11-03T21:12:18.063Z,75.28
2022-11-03T21:16:43.173Z,75.59
2022-11-03T21:20:51.918Z,75.19
2022-11-03T21:24:59.956Z,75.78
2022-11-03T21:29:08.675Z,75.56
2022-11-03T21:33:17.270Z,75.50
2022-11-03T21:37:25.602Z,75.45
2022-11-03T21:41:56.627Z,75.66
2022-11-03T21:46:09.526Z,75.56
2022-11-03T21:50:17.615Z,75.45
2022-11-03T21:54:25.161Z,75.56
2022-11-03T21:58:32.515Z,75.61
2022-11-03T22:02:40.654Z,75.35
2022-11-03T22:06:48.355Z,76.02
2022-11-03T22:11:18.008Z,75.75
2022-11-03T22:15:42.843Z,75.73
2022-11-03T22:20:09.696Z,76.09
2022-11-03T22:24:36.097Z,76.14
2022-11-03T22:28:43.865Z,76.16
2022-11-03T22:32:56.314Z,76.19
2022-11-03T22:37:04.164Z,75.80
2022-11-03T22:41:40.840Z,75.91
2022-11-03T22:45:54.667Z,76.21
2022-11-03T22:50:02.775Z,75.84
2022-11-03T22:54:13.345Z,75.80
2022-11-03T22:58:25.311Z,75.86
2022-11-03T23:02:37.501Z,75.96
2022-11-03T23:06:45.112Z,76.16
2022-11-03T23:10:53.474Z,76.23
2022-11-03T23:15:18.692Z,76.60
2022-11-03T23:19:44.151Z,76.32
2022-11-03T23:24:09.512Z,76.86
2022-11-03T23:28:18.345Z,76.79
2022-11-03T23:32:25.982Z,76.92
2022-11-03T23:36:34.142Z,76.68
2022-11-03T23:40:41.760Z,77.33
2022-11-03T23:45:06.713Z,77.53
2022-11-03T23:49:17.211Z,77.47
2022-11-03T23:53:25.625Z,77.82
2022-11-03T23:57:50.791Z,78.35
